createdAt,value
2023-04-16T00:00:28.445Z,102121.75
2023-04-16T00:02:55.623Z,102119.41
2023-04-16T00:05:23.028Z,102120.88
2023-04-16T00:07:52.224Z,102116.47
2023-04-16T00:10:19.641Z,102112.41
2023-04-16T00:12:46.674Z,102117.00
2023-04-16T00:15:13.732Z,102118.81
2023-04-16T00:17:40.920Z,102113.22
2023-04-16T00:20:09.174Z,102117.72
2023-04-16T00:22:36.431Z,102124.22
2023-04-16T00:25:03.660Z,102121.63
2023-04-16T00:27:30.804Z,102113.53
2023-04-16T00:29:57.867Z,102113.53
2023-04-16T00:32:25.056Z,102118.97
2023-04-16T00:34:52.697Z,102124.28
2023-04-16T00:37:19.877Z,102118.84
2023-04-16T00:39:46.982Z,102106.44
2023-04-16T00:42:14.088Z,102120.63
2023-04-16T00:44:41.144Z,102112.13
2023-04-16T00:47:08.549Z,102121.41
2023-04-16T00:49:36.259Z,102122.38
2023-04-16T00:52:03.403Z,102124.22
2023-04-16T00:54:31.804Z,102120.31
2023-04-16T00:56:59.648Z,102128.84
2023-04-16T00:59:27.154Z,102123.19
2023-04-16T01:01:55.499Z,102128.25
2023-04-16T01:04:23.217Z,102122.78
2023-04-16T01:06:51.329Z,102121.84
2023-04-16T01:09:18.511Z,102119.19
2023-04-16T01:11:45.811Z,102121.69
2023-04-16T01:14:12.908Z,102116.19
2023-04-16T01:16:40.004Z,102130.84
2023-04-16T01:19:07.403Z,102121.63
2023-04-16T01:21:34.615Z,102125.47
2023-04-16T01:24:05.056Z,102121.97
2023-04-16T01:26:32.205Z,102116.91
2023-04-16T01:29:00.341Z,102122.78
2023-04-16T01:31:27.558Z,102123.94
2023-04-16T01:33:54.657Z,102119.09
2023-04-16T01:36:22.909Z,102127.22
2023-04-16T01:38:50.120Z,102121.34
2023-04-16T01:41:17.154Z,102123.41
2023-04-16T01:43:44.294Z,102128.25
2023-04-16T01:46:15.166Z,102134.66
2023-04-16T01:48:42.905Z,102129.66
2023-04-16T01:51:10.158Z,102123.41
2023-04-16T01:53:37.410Z,102132.09
2023-04-16T01:56:04.965Z,102132.84
2023-04-16T01:58:32.582Z,102138.09
2023-04-16T02:00:59.800Z,102136.09
2023-04-16T02:03:27.124Z,102129.00
2023-04-16T02:05:54.742Z,102116.59
2023-04-16T02:08:22.656Z,102121.47
2023-04-16T02:10:50.602Z,102121.09
2023-04-16T02:13:17.697Z,102120.31
2023-04-16T02:15:48.201Z,102129.44
2023-04-16T02:18:15.478Z,102125.91
2023-04-16T02:20:47.106Z,102115.28
2023-04-16T02:23:16.743Z,102118.16
2023-04-16T02:25:45.869Z,102129.59
2023-04-16T02:28:15.613Z,102128.25
2023-04-16T02:30:43.460Z,102122.22
2023-04-16T02:33:12.103Z,102124.28
2023-04-16T02:35:40.039Z,102126.22
2023-04-16T02:38:07.651Z,102122.78
2023-04-16T02:40:35.054Z,102121.09
2023-04-16T02:43:02.228Z,102115.50
2023-04-16T02:45:31.501Z,102123.69
2023-04-16T02:47:58.753Z,102128.69
2023-04-16T02:50:25.993Z,102130.69
2023-04-16T02:52:53.141Z,102129.72
2023-04-16T02:55:20.427Z,102125.53
2023-04-16T02:57:47.802Z,102120.91
2023-04-16T03:00:15.174Z,102127.41
2023-04-16T03:02:42.691Z,102138.59
2023-04-16T03:05:10.485Z,102126.06
2023-04-16T03:07:39.187Z,102134.28
2023-04-16T03:10:07.470Z,102136.81
2023-04-16T03:12:34.993Z,102131.16
2023-04-16T03:15:02.426Z,102143.38
2023-04-16T03:17:29.730Z,102143.38
2023-04-16T03:19:57.012Z,102151.34
2023-04-16T03:22:24.088Z,102151.00
2023-04-16T03:24:51.517Z,102148.31
2023-04-16T03:27:18.619Z,102149.94
2023-04-16T03:29:45.768Z,102155.53
2023-04-16T03:32:12.816Z,102157.75
2023-04-16T03:34:39.912Z,102155.81
2023-04-16T03:37:07.054Z,102159.44
2023-04-16T03:39:34.646Z,102156.06
2023-04-16T03:42:02.330Z,102156.97
2023-04-16T03:44:29.871Z,102152.88
2023-04-16T03:46:57.023Z,102159.81
2023-04-16T03:49:24.126Z,102163.66
2023-04-16T03:51:51.592Z,102153.84
2023-04-16T03:54:20.146Z,102158.28
2023-04-16T03:56:48.674Z,102165.56
2023-04-16T03:59:15.814Z,102149.94
2023-04-16T04:01:42.904Z,102160.34
2023-04-16T04:04:10.270Z,102164.59
2023-04-16T04:06:37.448Z,102160.06
2023-04-16T04:09:04.653Z,102158.78
2023-04-16T04:11:31.751Z,102159.66
2023-04-16T04:13:58.895Z,102160.13
2023-04-16T04:16:26.015Z,102161.91
2023-04-16T04:18:53.157Z,102152.72
2023-04-16T04:21:21.448Z,102165.13
2023-04-16T04:23:48.811Z,102172.50
2023-04-16T04:26:16.421Z,102172.50
2023-04-16T04:28:43.568Z,102169.56
2023-04-16T04:31:11.149Z,102178.19
2023-04-16T04:33:38.248Z,102176.16
2023-04-16T04:36:05.596Z,102170.75
2023-04-16T04:38:32.749Z,102179.97
2023-04-16T04:40:59.817Z,102175.44
2023-04-16T04:43:26.997Z,102183.84
2023-04-16T04:45:54.190Z,102188.28
2023-04-16T04:48:26.196Z,102190.06
2023-04-16T04:50:53.856Z,102184.47
2023-04-16T04:53:21.553Z,102197.72
2023-04-16T04:55:52.290Z,102196.03
2023-04-16T04:58:21.490Z,102190.06
2023-04-16T05:00:49.071Z,102197.50
2023-04-16T05:03:20.459Z,102189.91
2023-04-16T05:05:48.132Z,102195.16
2023-04-16T05:08:15.270Z,102199.41
2023-04-16T05:10:42.344Z,102196.19
2023-04-16T05:13:09.402Z,102194.03
2023-04-16T05:15:36.482Z,102185.84
2023-04-16T05:18:03.690Z,102195.22
2023-04-16T05:20:31.292Z,102199.78
2023-04-16T05:22:58.312Z,102200.53
2023-04-16T05:25:25.433Z,102202.59
2023-04-16T05:27:52.556Z,102192.06
2023-04-16T05:30:19.686Z,102202.28
2023-04-16T05:32:46.865Z,102189.03
2023-04-16T05:35:16.681Z,102203.25
2023-04-16T05:37:44.644Z,102203.69
2023-04-16T05:40:14.004Z,102209.22
2023-04-16T05:42:41.126Z,102191.88
2023-04-16T05:45:08.798Z,102211.00
2023-04-16T05:47:35.998Z,102215.28
2023-04-16T05:50:03.125Z,102211.28
2023-04-16T05:52:30.276Z,102213.72
2023-04-16T05:54:58.113Z,102218.09
2023-04-16T05:57:25.293Z,102220.72
2023-04-16T05:59:52.876Z,102221.09
2023-04-16T06:02:20.226Z,102223.91
2023-04-16T06:04:48.267Z,102222.94
2023-04-16T06:07:15.522Z,102223.09
2023-04-16T06:09:42.612Z,102219.19
2023-04-16T06:12:09.755Z,102227.50
2023-04-16T06:14:36.894Z,102232.25
2023-04-16T06:17:04.007Z,102223.66
2023-04-16T06:19:31.076Z,102230.28
2023-04-16T06:21:58.192Z,102232.06
2023-04-16T06:24:25.365Z,102240.56
2023-04-16T06:26:52.829Z,102246.25
2023-04-16T06:29:21.311Z,102253.25
2023-04-16T06:31:49.979Z,102245.28
2023-04-16T06:34:17.173Z,102247.75
2023-04-16T06:36:44.393Z,102248.97
2023-04-16T06:39:11.691Z,102253.94
2023-04-16T06:41:39.059Z,102260.94
2023-04-16T06:44:06.355Z,102255.91
2023-04-16T06:46:33.680Z,102256.88
2023-04-16T06:49:00.797Z,102247.34
2023-04-16T06:51:28.180Z,102257.59
2023-04-16T06:53:55.323Z,102261.97
2023-04-16T06:56:22.623Z,102264.38
2023-04-16T06:58:51.721Z,102268.97
2023-04-16T07:01:22.731Z,102267.78
2023-04-16T07:03:50.184Z,102266.38
2023-04-16T07:06:18.263Z,102274.41
2023-04-16T07:08:45.395Z,102266.88
2023-04-16T07:11:12.525Z,102278.09
2023-04-16T07:13:39.546Z,102278.50
2023-04-16T07:16:07.212Z,102281.19
2023-04-16T07:18:34.304Z,102280.66
2023-04-16T07:21:01.534Z,102292.13
2023-04-16T07:23:28.785Z,102290.69
2023-04-16T07:25:56.566Z,102286.69
2023-04-16T07:28:25.222Z,102293.75
2023-04-16T07:30:52.667Z,102287.31
2023-04-16T07:33:19.780Z,102294.44
2023-04-16T07:35:49.805Z,102293.75
2023-04-16T07:38:16.944Z,102290.81
2023-04-16T07:40:44.149Z,102299.47
2023-04-16T07:43:11.532Z,102291.22
2023-04-16T07:45:39.608Z,102300.59
2023-04-16T07:48:07.601Z,102310.25
2023-04-16T07:50:34.941Z,102311.16
2023-04-16T07:53:02.114Z,102313.25
2023-04-16T07:55:29.258Z,102328.44
2023-04-16T07:57:56.330Z,102317.19
2023-04-16T08:00:23.474Z,102323.03
2023-04-16T08:02:51.569Z,102318.38
2023-04-16T08:05:19.399Z,102313.81
2023-04-16T08:07:46.998Z,102327.16
2023-04-16T08:10:14.150Z,102331.84
2023-04-16T08:12:41.396Z,102330.03
2023-04-16T08:15:09.027Z,102333.34
2023-04-16T08:17:37.611Z,102338.84
2023-04-16T08:20:06.358Z,102339.81
2023-04-16T08:22:33.885Z,102346.78
2023-04-16T08:25:01.084Z,102354.09
2023-04-16T08:27:28.327Z,102353.22
2023-04-16T08:29:55.524Z,102358.06
2023-04-16T08:32:22.735Z,102338.94
2023-04-16T08:34:49.872Z,102345.69
2023-04-16T08:37:16.947Z,102354.53
2023-04-16T08:39:44.070Z,102355.13
2023-04-16T08:42:28.333Z,102354.66
2023-04-16T08:45:06.269Z,102355.66
2023-04-16T08:47:36.037Z,102365.41
2023-04-16T08:50:06.939Z,102363.16
2023-04-16T08:52:38.025Z,102376.28
2023-04-16T08:55:11.931Z,102372.63
2023-04-16T08:57:44.676Z,102369.25
2023-04-16T09:00:13.444Z,102358.78
2023-04-16T09:02:41.184Z,102365.28
2023-04-16T09:05:10.642Z,102367.63
2023-04-16T09:07:38.459Z,102363.75
2023-04-16T09:10:08.279Z,102368.25
2023-04-16T09:12:35.832Z,102373.97
2023-04-16T09:15:03.861Z,102371.44
2023-04-16T09:17:31.434Z,102371.09
2023-04-16T09:19:58.585Z,102366.25
2023-04-16T09:22:25.842Z,102369.97
2023-04-16T09:24:53.001Z,102374.50
2023-04-16T09:27:24.142Z,102376.59
2023-04-16T09:29:52.861Z,102374.38
2023-04-16T09:32:26.533Z,102382.41
2023-04-16T09:35:00.494Z,102385.88
2023-04-16T09:37:31.920Z,102390.84
2023-04-16T09:40:00.866Z,102393.50
2023-04-16T09:42:31.000Z,102393.09
2023-04-16T09:45:00.831Z,102396.91
2023-04-16T09:47:41.471Z,102391.88
2023-04-16T09:50:12.493Z,102395.28
2023-04-16T09:52:40.115Z,102406.44
2023-04-16T09:55:07.648Z,102395.53
2023-04-16T09:57:37.918Z,102410.66
2023-04-16T10:00:07.789Z,102402.47
2023-04-16T10:02:35.800Z,102417.88
2023-04-16T10:05:03.203Z,102396.75
2023-04-16T10:07:34.600Z,102406.41
2023-04-16T10:10:03.242Z,102409.38
2023-04-16T10:12:32.701Z,102411.69
2023-04-16T10:15:00.079Z,102416.31
2023-04-16T10:17:30.027Z,102412.22
2023-04-16T10:19:58.226Z,102417.34
2023-04-16T10:22:26.362Z,102409.44
2023-04-16T10:24:54.892Z,102417.00
2023-04-16T10:27:23.130Z,102419.38
2023-04-16T10:29:53.003Z,102417.38
2023-04-16T10:32:22.802Z,102417.03
2023-04-16T10:34:50.051Z,102426.06
2023-04-16T10:37:19.245Z,102410.63
2023-04-16T10:39:46.385Z,102416.16
2023-04-16T10:42:13.561Z,102424.78
2023-04-16T10:44:44.357Z,102422.00
2023-04-16T10:47:13.913Z,102429.13
2023-04-16T10:49:42.384Z,102424.03
2023-04-16T10:52:09.427Z,102432.97
2023-04-16T10:54:36.845Z,102428.13
2023-04-16T10:57:06.429Z,102427.47
2023-04-16T10:59:35.448Z,102423.63
2023-04-16T11:02:28.498Z,102423.97
2023-04-16T11:04:57.315Z,102430.38
2023-04-16T11:07:35.155Z,102431.19
2023-04-16T11:10:05.990Z,102427.63
2023-04-16T11:12:34.414Z,102421.03
2023-04-16T11:15:03.179Z,102424.19
2023-04-16T11:17:39.404Z,102422.81
2023-04-16T11:20:19.414Z,102422.75
2023-04-16T11:22:49.968Z,102430.03
2023-04-16T11:25:22.920Z,102426.31
2023-04-16T11:27:51.782Z,102439.72
2023-04-16T11:30:28.585Z,102441.50
2023-04-16T11:32:56.172Z,102435.75
2023-04-16T11:35:23.422Z,102440.00
2023-04-16T11:37:55.464Z,102435.91
2023-04-16T11:40:23.039Z,102441.44
2023-04-16T11:42:50.226Z,102429.31
2023-04-16T11:45:19.476Z,102437.25
2023-04-16T11:47:53.339Z,102430.88
2023-04-16T11:50:28.189Z,102436.09
2023-04-16T11:52:57.812Z,102436.03
2023-04-16T11:55:25.045Z,102440.06
2023-04-16T11:57:52.868Z,102438.94
2023-04-16T12:00:23.985Z,102437.41
2023-04-16T12:02:54.530Z,102448.44
2023-04-16T12:05:32.127Z,102446.41
2023-04-16T12:08:00.925Z,102434.31
2023-04-16T12:10:28.783Z,102446.09
2023-04-16T12:13:19.661Z,102445.97
2023-04-16T12:15:52.884Z,102445.34
2023-04-16T12:18:22.965Z,102457.50
2023-04-16T12:20:53.348Z,102458.34
2023-04-16T12:23:23.544Z,102457.28
2023-04-16T12:25:52.732Z,102462.31
2023-04-16T12:28:34.194Z,102462.59
2023-04-16T12:31:02.737Z,102461.38
2023-04-16T12:33:30.323Z,102465.56
2023-04-16T12:35:57.999Z,102458.22
2023-04-16T12:38:26.268Z,102449.72
2023-04-16T12:40:56.821Z,102459.53
2023-04-16T12:43:25.161Z,102459.72
2023-04-16T12:45:52.846Z,102466.00
2023-04-16T12:48:19.971Z,102454.75
2023-04-16T12:50:47.307Z,102462.53
2023-04-16T12:53:14.509Z,102453.44
2023-04-16T12:55:41.870Z,102461.50
2023-04-16T12:58:10.562Z,102459.84
2023-04-16T13:00:40.282Z,102462.88
2023-04-16T13:03:07.802Z,102452.28
2023-04-16T13:05:35.018Z,102462.72
2023-04-16T13:08:02.614Z,102462.56
2023-04-16T13:10:30.519Z,102459.94
2023-04-16T13:12:57.664Z,102457.00
2023-04-16T13:15:24.829Z,102452.53
2023-04-16T13:17:52.587Z,102449.31
2023-04-16T13:20:20.251Z,102456.53
2023-04-16T13:22:48.418Z,102462.16
2023-04-16T13:25:15.637Z,102455.38
2023-04-16T13:27:42.786Z,102448.91
2023-04-16T13:30:10.625Z,102453.19
2023-04-16T13:32:38.038Z,102455.84
2023-04-16T13:35:05.983Z,102451.78
2023-04-16T13:37:33.129Z,102455.50
2023-04-16T13:40:00.198Z,102453.72
2023-04-16T13:42:28.407Z,102455.19
2023-04-16T13:44:55.605Z,102461.44
2023-04-16T13:47:22.905Z,102464.28
2023-04-16T13:49:50.200Z,102457.47
2023-04-16T13:52:17.312Z,102458.34
2023-04-16T13:54:44.404Z,102451.44
2023-04-16T13:57:12.582Z,102460.44
2023-04-16T13:59:39.737Z,102458.19
2023-04-16T14:02:07.752Z,102441.44
2023-04-16T14:04:34.813Z,102454.94
2023-04-16T14:07:02.020Z,102449.84
2023-04-16T14:09:29.117Z,102445.75
2023-04-16T14:11:56.187Z,102443.72
2023-04-16T14:14:23.343Z,102450.41
2023-04-16T14:16:51.596Z,102455.09
2023-04-16T14:19:18.690Z,102443.63
2023-04-16T14:21:45.989Z,102447.28
2023-04-16T14:24:13.023Z,102450.00
2023-04-16T14:26:40.162Z,102441.56
2023-04-16T14:29:07.257Z,102444.84
2023-04-16T14:31:34.366Z,102447.38
2023-04-16T14:34:01.906Z,102461.44
2023-04-16T14:36:31.127Z,102456.09
2023-04-16T14:38:58.319Z,102456.34
2023-04-16T14:41:25.581Z,102456.97
2023-04-16T14:43:52.872Z,102451.31
2023-04-16T14:46:20.090Z,102447.56
2023-04-16T14:48:47.290Z,102445.31
2023-04-16T14:51:14.487Z,102457.25
2023-04-16T14:53:41.567Z,102439.97
2023-04-16T14:56:08.646Z,102435.19
2023-04-16T14:58:37.298Z,102436.94
2023-04-16T15:01:06.291Z,102431.78
2023-04-16T15:03:33.835Z,102440.28
2023-04-16T15:06:01.144Z,102437.38
2023-04-16T15:08:28.296Z,102428.56
2023-04-16T15:10:55.478Z,102443.19
2023-04-16T15:13:23.095Z,102443.56
2023-04-16T15:15:50.312Z,102441.81
2023-04-16T15:18:17.548Z,102440.84
2023-04-16T15:20:44.754Z,102443.81
2023-04-16T15:23:12.073Z,102450.16
2023-04-16T15:25:39.507Z,102449.81
2023-04-16T15:28:06.662Z,102433.78
2023-04-16T15:30:33.927Z,102439.03
2023-04-16T15:33:01.249Z,102439.97
2023-04-16T15:35:28.521Z,102447.31
2023-04-16T15:37:55.700Z,102438.44
2023-04-16T15:40:24.285Z,102444.44
2023-04-16T15:42:52.714Z,102454.56
2023-04-16T15:45:20.340Z,102447.38
2023-04-16T15:47:51.812Z,102439.19
2023-04-16T15:50:20.190Z,102455.97
2023-04-16T15:52:47.708Z,102448.00
2023-04-16T15:55:16.695Z,102452.00
2023-04-16T15:57:43.838Z,102449.41
2023-04-16T16:00:17.106Z,102438.66
2023-04-16T16:02:46.470Z,102452.72
2023-04-16T16:05:14.814Z,102434.94
2023-04-16T16:07:42.996Z,102443.84
2023-04-16T16:10:11.364Z,102441.13
2023-04-16T16:12:39.365Z,102443.53
2023-04-16T16:15:07.237Z,102438.59
2023-04-16T16:17:34.404Z,102448.50
2023-04-16T16:20:01.742Z,102449.31
2023-04-16T16:22:29.783Z,102443.47
2023-04-16T16:24:57.990Z,102446.38
2023-04-16T16:27:25.255Z,102441.06
2023-04-16T16:29:53.284Z,102447.75
2023-04-16T16:32:21.865Z,102458.91
2023-04-16T16:34:48.981Z,102441.28
2023-04-16T16:37:16.284Z,102442.56
2023-04-16T16:39:43.410Z,102447.22
2023-04-16T16:42:10.627Z,102448.81
2023-04-16T16:44:37.855Z,102446.41
2023-04-16T16:47:05.077Z,102445.22
2023-04-16T16:49:32.255Z,102446.09
2023-04-16T16:51:59.489Z,102449.31
2023-04-16T16:54:26.546Z,102446.78
2023-04-16T16:56:53.656Z,102449.91
2023-04-16T16:59:21.912Z,102462.31
2023-04-16T17:01:49.974Z,102459.41
2023-04-16T17:04:20.060Z,102448.91
2023-04-16T17:06:47.595Z,102463.28
2023-04-16T17:09:14.716Z,102451.78
2023-04-16T17:11:41.857Z,102461.94
2023-04-16T17:14:11.778Z,102464.31
2023-04-16T17:16:38.917Z,102474.50
2023-04-16T17:19:06.113Z,102459.81
2023-04-16T17:21:33.953Z,102469.56
2023-04-16T17:24:01.098Z,102471.13
2023-04-16T17:26:28.219Z,102474.09
2023-04-16T17:28:57.477Z,102476.34
2023-04-16T17:31:27.473Z,102488.03
2023-04-16T17:33:54.721Z,102486.63
2023-04-16T17:36:23.071Z,102478.56
2023-04-16T17:38:52.137Z,102485.88
2023-04-16T17:41:19.961Z,102487.44
2023-04-16T17:43:50.077Z,102496.69
2023-04-16T17:46:17.213Z,102491.75
2023-04-16T17:48:44.315Z,102494.84
2023-04-16T17:51:12.127Z,102491.91
2023-04-16T17:53:39.245Z,102497.88
2023-04-16T17:56:06.907Z,102501.34
2023-04-16T17:58:35.315Z,102502.84
2023-04-16T18:01:03.397Z,102504.47
2023-04-16T18:03:32.318Z,102500.59
2023-04-16T18:06:00.235Z,102486.13
2023-04-16T18:08:27.770Z,102507.31
2023-04-16T18:10:55.546Z,102510.78
2023-04-16T18:13:24.283Z,102507.69
2023-04-16T18:15:52.995Z,102513.25
2023-04-16T18:18:21.882Z,102514.03
2023-04-16T18:20:48.941Z,102510.94
2023-04-16T18:23:16.008Z,102508.56
2023-04-16T18:25:43.131Z,102512.78
2023-04-16T18:28:13.298Z,102510.50
2023-04-16T18:30:41.434Z,102512.44
2023-04-16T18:33:34.209Z,102521.88
2023-04-16T18:35:55.575Z,102520.53
2023-04-16T18:38:23.135Z,102525.13
2023-04-16T18:40:50.437Z,102533.97
2023-04-16T18:43:17.593Z,102536.38
2023-04-16T18:45:44.712Z,102511.19
2023-04-16T18:48:11.738Z,102541.53
2023-04-16T18:50:38.813Z,102545.91
2023-04-16T18:53:06.055Z,102546.41
2023-04-16T18:55:33.166Z,102538.72
2023-04-16T18:58:00.286Z,102541.53
2023-04-16T19:00:27.420Z,102539.31
2023-04-16T19:02:54.711Z,102544.59
2023-04-16T19:05:23.088Z,102554.78
2023-04-16T19:07:50.384Z,102549.66
2023-04-16T19:10:17.555Z,102553.59
2023-04-16T19:12:44.566Z,102544.88
2023-04-16T19:15:11.679Z,102542.78
2023-04-16T19:17:39.849Z,102558.50
2023-04-16T19:20:11.487Z,102563.59
2023-04-16T19:22:38.786Z,102552.25
2023-04-16T19:25:07.172Z,102557.06
2023-04-16T19:27:34.753Z,102550.44
2023-04-16T19:30:02.925Z,102559.88
2023-04-16T19:32:30.026Z,102551.50
2023-04-16T19:34:57.056Z,102556.50
2023-04-16T19:37:24.068Z,102559.09
2023-04-16T19:39:52.528Z,102553.03
2023-04-16T19:42:20.486Z,102555.38
2023-04-16T19:44:48.245Z,102556.44
2023-04-16T19:47:15.396Z,102539.88
2023-04-16T19:49:43.611Z,102556.75
2023-04-16T19:52:10.669Z,102559.00
2023-04-16T19:54:37.801Z,102554.00
2023-04-16T19:57:04.812Z,102561.28
2023-04-16T19:59:32.289Z,102565.72
2023-04-16T20:01:59.580Z,102561.78
2023-04-16T20:04:26.780Z,102565.22
2023-04-16T20:06:53.917Z,102558.13
2023-04-16T20:09:22.100Z,102564.47
2023-04-16T20:11:49.538Z,102554.81
2023-04-16T20:14:17.219Z,102557.06
2023-04-16T20:16:44.284Z,102569.97
2023-04-16T20:19:18.307Z,102560.78
2023-04-16T20:21:45.788Z,102571.63
2023-04-16T20:24:15.430Z,102571.44
2023-04-16T20:26:42.794Z,102567.75
2023-04-16T20:29:10.270Z,102565.28
2023-04-16T20:31:37.548Z,102566.28
2023-04-16T20:34:04.636Z,102567.31
2023-04-16T20:36:31.881Z,102574.94
2023-04-16T20:38:59.847Z,102565.63
2023-04-16T20:41:27.393Z,102565.94
2023-04-16T20:43:54.478Z,102562.19
2023-04-16T20:46:24.350Z,102562.22
2023-04-16T20:48:52.716Z,102563.13
2023-04-16T20:51:20.161Z,102563.56
2023-04-16T20:53:47.278Z,102556.91
2023-04-16T20:56:17.389Z,102563.56
2023-04-16T20:58:44.522Z,102544.31
2023-04-16T21:01:11.975Z,102545.72
2023-04-16T21:03:39.324Z,102543.59
2023-04-16T21:06:06.461Z,102541.66
2023-04-16T21:08:33.579Z,102539.03
2023-04-16T21:11:00.976Z,102549.50
2023-04-16T21:13:28.042Z,102545.31
2023-04-16T21:15:55.327Z,102546.66
2023-04-16T21:18:22.701Z,102544.97
2023-04-16T21:20:50.052Z,102555.06
2023-04-16T21:23:17.174Z,102547.00
2023-04-16T21:25:44.268Z,102541.97
2023-04-16T21:28:11.368Z,102525.31
2023-04-16T21:30:38.840Z,102536.94
2023-04-16T21:33:06.575Z,102534.25
2023-04-16T21:35:34.070Z,102543.03
2023-04-16T21:38:01.534Z,102539.03
2023-04-16T21:40:28.683Z,102545.31
2023-04-16T21:42:56.052Z,102540.63
2023-04-16T21:45:23.234Z,102542.78
2023-04-16T21:47:51.742Z,102543.19
2023-04-16T21:50:18.952Z,102552.91
2023-04-16T21:52:46.769Z,102551.50
2023-04-16T21:55:14.786Z,102543.84
2023-04-16T21:57:41.845Z,102550.03
2023-04-16T22:00:13.826Z,102553.38
2023-04-16T22:02:44.525Z,102550.16
2023-04-16T22:05:12.057Z,102554.50
2023-04-16T22:07:39.142Z,102555.56
2023-04-16T22:10:08.666Z,102532.63
2023-04-16T22:12:39.948Z,102542.47
2023-04-16T22:15:08.090Z,102539.34
2023-04-16T22:17:35.329Z,102551.44
2023-04-16T22:20:06.921Z,102540.00
2023-04-16T22:22:34.236Z,102538.34
2023-04-16T22:25:01.889Z,102545.16
2023-04-16T22:27:29.026Z,102547.00
2023-04-16T22:29:56.119Z,102537.97
2023-04-16T22:32:23.317Z,102539.03
2023-04-16T22:34:51.536Z,102534.09
2023-04-16T22:37:18.689Z,102541.91
2023-04-16T22:39:45.910Z,102546.22
2023-04-16T22:42:12.924Z,102537.06
2023-04-16T22:44:40.024Z,102547.09
2023-04-16T22:47:07.118Z,102542.34
2023-04-16T22:49:34.174Z,102548.78
2023-04-16T22:52:01.985Z,102549.81
2023-04-16T22:54:30.095Z,102550.16
2023-04-16T22:56:57.737Z,102539.81
2023-04-16T22:59:25.228Z,102539.34
2023-04-16T23:01:53.042Z,102536.25
2023-04-16T23:04:20.327Z,102536.13
2023-04-16T23:06:47.956Z,102547.88
2023-04-16T23:09:15.062Z,102534.91
2023-04-16T23:11:42.211Z,102543.44
2023-04-16T23:14:09.827Z,102549.00
2023-04-16T23:16:36.949Z,102546.22
2023-04-16T23:19:03.994Z,102545.38
2023-04-16T23:21:31.361Z,102546.91
2023-04-16T23:23:59.198Z,102541.03
2023-04-16T23:26:26.368Z,102546.09
2023-04-16T23:28:53.399Z,102545.78
2023-04-16T23:31:21.534Z,102548.66
2023-04-16T23:33:48.665Z,102553.22
2023-04-16T23:36:15.787Z,102550.94
2023-04-16T23:38:42.868Z,102560.28
2023-04-16T23:41:09.957Z,102554.34
2023-04-16T23:43:39.990Z,102553.34
2023-04-16T23:46:07.565Z,102558.69
2023-04-16T23:48:34.668Z,102557.66
2023-04-16T23:51:01.758Z,102551.25
2023-04-16T23:53:28.757Z,102553.50
2023-04-16T23:55:55.831Z,102557.56
2023-04-16T23:58:22.989Z,102552.72
